createdAt,value
2023-05-19T00:04:14.755Z,9.38
2023-05-19T00:14:21.612Z,9.34
2023-05-19T00:24:27.400Z,9.28
2023-05-19T00:34:33.028Z,9.27
2023-05-19T00:44:41.879Z,9.28
2023-05-19T00:54:48.136Z,9.26
2023-05-19T01:04:56.290Z,9.25
2023-05-19T01:15:02.890Z,9.24
2023-05-19T01:25:44.232Z,9.24
2023-05-19T01:35:51.324Z,9.19
2023-05-19T01:45:58.987Z,9.14
2023-05-19T01:56:05.296Z,9.08
2023-05-19T02:06:24.131Z,9.08
2023-05-19T02:16:31.333Z,9.05
2023-05-19T02:26:36.994Z,8.95
2023-05-19T02:36:44.196Z,8.86
2023-05-19T02:46:49.882Z,8.81
2023-05-19T02:56:55.627Z,8.82
2023-05-19T03:07:02.283Z,8.82
2023-05-19T03:17:10.325Z,8.89
2023-05-19T03:27:16.911Z,8.88
2023-05-19T03:37:22.644Z,8.90
2023-05-19T03:47:28.405Z,8.92
2023-05-19T03:57:34.747Z,8.98
2023-05-19T04:07:40.509Z,9.06
2023-05-19T04:17:46.406Z,9.14
2023-05-19T04:27:53.010Z,9.23
2023-05-19T04:37:58.761Z,9.30
2023-05-19T04:48:05.411Z,9.35
2023-05-19T04:58:11.359Z,9.52
2023-05-19T05:08:22.964Z,9.71
2023-05-19T05:18:29.963Z,9.91
2023-05-19T05:28:35.550Z,9.99
2023-05-19T05:38:41.205Z,10.10
2023-05-19T05:48:48.222Z,10.21
2023-05-19T05:58:53.990Z,10.48
2023-05-19T06:08:59.752Z,10.74
2023-05-19T06:19:05.888Z,10.85
2023-05-19T06:29:11.942Z,10.99
2023-05-19T06:39:17.784Z,11.02
2023-05-19T06:49:24.149Z,11.03
2023-05-19T06:59:29.875Z,10.96
2023-05-19T07:09:35.803Z,11.10
2023-05-19T07:19:41.536Z,11.59
2023-05-19T07:29:47.336Z,11.51
2023-05-19T07:39:53.068Z,11.23
2023-05-19T07:49:58.912Z,11.15
2023-05-19T08:00:07.788Z,11.08
2023-05-19T08:10:13.834Z,11.05
2023-05-19T08:20:20.556Z,11.57
2023-05-19T08:30:26.367Z,12.13
2023-05-19T08:40:33.034Z,12.35
2023-05-19T08:50:43.695Z,12.60
2023-05-19T09:00:51.243Z,12.29
2023-05-19T09:10:57.020Z,11.87
2023-05-19T09:21:03.639Z,11.72
2023-05-19T09:31:11.056Z,11.85
2023-05-19T09:41:17.676Z,11.68
2023-05-19T09:51:23.648Z,11.65
2023-05-19T10:01:30.314Z,11.55
2023-05-19T10:11:36.582Z,11.53
2023-05-19T10:21:42.713Z,11.73
2023-05-19T10:31:51.877Z,11.77
2023-05-19T10:42:06.486Z,12.06
2023-05-19T10:52:26.222Z,12.29
2023-05-19T11:02:43.339Z,12.31
2023-05-19T11:12:49.216Z,12.07
2023-05-19T11:23:11.660Z,11.97
2023-05-19T11:33:20.015Z,12.03
2023-05-19T11:43:29.004Z,12.06
2023-05-19T11:53:36.393Z,12.13
2023-05-19T12:03:42.412Z,12.43
2023-05-19T12:13:50.382Z,12.43
2023-05-19T12:23:56.415Z,12.55
2023-05-19T12:34:02.833Z,12.53
2023-05-19T12:44:18.354Z,12.81
2023-05-19T12:54:24.945Z,13.35
2023-05-19T13:04:31.092Z,13.40
2023-05-19T13:14:37.775Z,12.98
2023-05-19T13:24:43.604Z,12.75
2023-05-19T13:34:49.449Z,12.54
2023-05-19T13:44:58.394Z,12.69
2023-05-19T13:55:04.297Z,12.71
2023-05-19T14:05:10.864Z,12.58
2023-05-19T14:15:16.615Z,12.61
2023-05-19T14:25:23.547Z,12.65
2023-05-19T14:35:29.244Z,12.91
2023-05-19T14:45:35.386Z,12.69
2023-05-19T14:55:41.407Z,12.38
2023-05-19T15:05:47.155Z,12.35
2023-05-19T15:16:08.249Z,12.33
2023-05-19T15:26:22.497Z,12.47
2023-05-19T15:36:28.464Z,12.44
2023-05-19T15:46:34.754Z,12.34
2023-05-19T15:56:40.804Z,12.14
2023-05-19T16:06:46.676Z,12.04
2023-05-19T16:16:52.691Z,12.05
2023-05-19T16:26:58.711Z,12.07
2023-05-19T16:37:04.774Z,12.04
2023-05-19T16:47:10.627Z,12.04
2023-05-19T16:57:16.424Z,11.94
2023-05-19T17:07:22.221Z,11.82
2023-05-19T17:17:28.458Z,11.73
2023-05-19T17:27:34.344Z,11.74
2023-05-19T17:37:40.256Z,11.67
2023-05-19T17:47:46.008Z,11.61
2023-05-19T17:57:52.507Z,11.59
2023-05-19T18:07:59.286Z,11.53
2023-05-19T18:18:07.797Z,11.42
2023-05-19T18:28:13.572Z,11.43
2023-05-19T18:38:19.372Z,11.43
2023-05-19T18:48:25.632Z,11.38
2023-05-19T18:58:31.583Z,11.34
2023-05-19T19:08:37.429Z,11.29
2023-05-19T19:18:43.494Z,11.24
2023-05-19T19:28:49.242Z,11.20
2023-05-19T19:38:55.005Z,11.19
2023-05-19T19:49:01.577Z,11.15
2023-05-19T19:59:07.485Z,11.05
2023-05-19T20:09:13.458Z,11.03
2023-05-19T20:19:19.214Z,11.02
2023-05-19T20:29:25.013Z,11.05
2023-05-19T20:39:31.288Z,11.06
2023-05-19T20:49:37.458Z,11.08
2023-05-19T20:59:43.566Z,11.06
2023-05-19T21:09:51.416Z,11.07
2023-05-19T21:19:59.710Z,11.11
2023-05-19T21:30:06.927Z,11.12
2023-05-19T21:40:14.239Z,11.12
2023-05-19T21:50:20.277Z,11.12
2023-05-19T22:00:25.968Z,11.13
2023-05-19T22:10:32.460Z,11.13
2023-05-19T22:20:38.514Z,11.14
2023-05-19T22:30:44.341Z,11.14
2023-05-19T22:40:50.921Z,11.11
2023-05-19T22:50:56.869Z,11.11
2023-05-19T23:01:02.893Z,11.14
2023-05-19T23:11:09.256Z,11.16
2023-05-19T23:21:15.094Z,11.17
2023-05-19T23:31:21.090Z,11.16
2023-05-19T23:41:27.136Z,11.13
2023-05-19T23:51:33.058Z,11.15
